sensor_id;sensor_type;location;lat;lon;timestamp;P1;durP1;ratioP1;P2;durP2;ratioP2
47383;SDS011;33129;52.232;5.192;2022-10-26T00:00:07;8.60;;;3.50;;
47383;SDS011;33129;52.232;5.192;2022-10-26T00:02:34;10.50;;;4.20;;
47383;SDS011;33129;52.232;5.192;2022-10-26T00:04:59;9.33;;;4.00;;
47383;SDS011;33129;52.232;5.192;2022-10-26T00:07:27;8.80;;;4.13;;
47383;SDS011;33129;52.232;5.192;2022-10-26T00:09:53;9.00;;;3.80;;
47383;SDS011;33129;52.232;5.192;2022-10-26T00:12:19;9.00;;;4.20;;
47383;SDS011;33129;52.232;5.192;2022-10-26T00:14:45;9.33;;;4.40;;
47383;SDS011;33129;52.232;5.192;2022-10-26T00:17:11;9.80;;;3.80;;
47383;SDS011;33129;52.232;5.192;2022-10-26T00:19:37;7.43;;;4.03;;
47383;SDS011;33129;52.232;5.192;2022-10-26T00:22:03;10.10;;;4.40;;
47383;SDS011;33129;52.232;5.192;2022-10-26T00:24:28;9.47;;;3.90;;
47383;SDS011;33129;52.232;5.192;2022-10-26T00:26:54;11.47;;;4.93;;
47383;SDS011;33129;52.232;5.192;2022-10-26T00:29:20;8.93;;;4.70;;
47383;SDS011;33129;52.232;5.192;2022-10-26T00:31:46;10.27;;;4.57;;
47383;SDS011;33129;52.232;5.192;2022-10-26T00:34:12;8.73;;;4.10;;
47383;SDS011;33129;52.232;5.192;2022-10-26T00:36:37;8.47;;;4.10;;
47383;SDS011;33129;52.232;5.192;2022-10-26T00:39:03;9.80;;;4.50;;
47383;SDS011;33129;52.232;5.192;2022-10-26T00:41:31;7.07;;;4.27;;
47383;SDS011;33129;52.232;5.192;2022-10-26T00:43:58;11.27;;;5.03;;
47383;SDS011;33129;52.232;5.192;2022-10-26T00:46:34;11.17;;;5.03;;
47383;SDS011;33129;52.232;5.192;2022-10-26T00:49:15;10.10;;;5.00;;
47383;SDS011;33129;52.232;5.192;2022-10-26T00:51:45;7.83;;;4.33;;
47383;SDS011;33129;52.232;5.192;2022-10-26T00:54:16;10.10;;;4.77;;
47383;SDS011;33129;52.232;5.192;2022-10-26T00:56:47;10.90;;;5.57;;
47383;SDS011;33129;52.232;5.192;2022-10-26T00:59:16;13.70;;;4.73;;
47383;SDS011;33129;52.232;5.192;2022-10-26T01:01:43;11.70;;;5.10;;
47383;SDS011;33129;52.232;5.192;2022-10-26T01:04:11;12.87;;;6.03;;
47383;SDS011;33129;52.232;5.192;2022-10-26T01:06:38;10.73;;;5.50;;
47383;SDS011;33129;52.232;5.192;2022-10-26T01:09:06;10.60;;;5.70;;
47383;SDS011;33129;52.232;5.192;2022-10-26T01:11:33;11.30;;;5.50;;
47383;SDS011;33129;52.232;5.192;2022-10-26T01:13:59;10.27;;;5.80;;
47383;SDS011;33129;52.232;5.192;2022-10-26T01:16:34;9.20;;;5.50;;
47383;SDS011;33129;52.232;5.192;2022-10-26T01:22:40;10.43;;;5.47;;
47383;SDS011;33129;52.232;5.192;2022-10-26T01:28:39;9.63;;;5.85;;
47383;SDS011;33129;52.232;5.192;2022-10-26T01:31:54;12.37;;;6.77;;
47383;SDS011;33129;52.232;5.192;2022-10-26T01:34:27;10.00;;;5.73;;
47383;SDS011;33129;52.232;5.192;2022-10-26T01:37:19;12.97;;;6.13;;
47383;SDS011;33129;52.232;5.192;2022-10-26T01:39:57;12.60;;;6.13;;
47383;SDS011;33129;52.232;5.192;2022-10-26T01:42:42;11.32;;;6.35;;
47383;SDS011;33129;52.232;5.192;2022-10-26T01:45:13;13.00;;;6.47;;
47383;SDS011;33129;52.232;5.192;2022-10-26T01:47:40;11.87;;;6.50;;
47383;SDS011;33129;52.232;5.192;2022-10-26T01:50:07;15.60;;;6.93;;
47383;SDS011;33129;52.232;5.192;2022-10-26T01:52:35;14.00;;;6.63;;
47383;SDS011;33129;52.232;5.192;2022-10-26T01:55:04;11.43;;;6.33;;
47383;SDS011;33129;52.232;5.192;2022-10-26T01:58:11;12.07;;;6.83;;
47383;SDS011;33129;52.232;5.192;2022-10-26T02:01:31;11.77;;;6.87;;
47383;SDS011;33129;52.232;5.192;2022-10-26T02:11:17;11.53;;;7.00;;
47383;SDS011;33129;52.232;5.192;2022-10-26T02:16:36;12.40;;;6.70;;
47383;SDS011;33129;52.232;5.192;2022-10-26T02:19:19;15.10;;;6.60;;
47383;SDS011;33129;52.232;5.192;2022-10-26T02:24:53;9.57;;;6.23;;
47383;SDS011;33129;52.232;5.192;2022-10-26T02:27:22;15.57;;;6.23;;
47383;SDS011;33129;52.232;5.192;2022-10-26T02:29:52;14.30;;;6.13;;
47383;SDS011;33129;52.232;5.192;2022-10-26T02:32:25;12.93;;;6.27;;
47383;SDS011;33129;52.232;5.192;2022-10-26T02:34:56;10.77;;;6.20;;
47383;SDS011;33129;52.232;5.192;2022-10-26T02:37:24;11.00;;;6.10;;
47383;SDS011;33129;52.232;5.192;2022-10-26T02:39:51;11.27;;;5.93;;
47383;SDS011;33129;52.232;5.192;2022-10-26T02:42:18;11.90;;;6.03;;
47383;SDS011;33129;52.232;5.192;2022-10-26T02:44:49;11.27;;;5.57;;
47383;SDS011;33129;52.232;5.192;2022-10-26T02:47:19;11.90;;;6.13;;
47383;SDS011;33129;52.232;5.192;2022-10-26T02:49:46;11.17;;;6.10;;
47383;SDS011;33129;52.232;5.192;2022-10-26T02:52:15;9.40;;;5.30;;
47383;SDS011;33129;52.232;5.192;2022-10-26T02:54:59;11.47;;;5.50;;
47383;SDS011;33129;52.232;5.192;2022-10-26T02:57:35;10.23;;;5.60;;
47383;SDS011;33129;52.232;5.192;2022-10-26T03:00:06;10.30;;;5.57;;
47383;SDS011;33129;52.232;5.192;2022-10-26T03:02:35;11.50;;;6.00;;
47383;SDS011;33129;52.232;5.192;2022-10-26T03:05:23;11.47;;;5.63;;
47383;SDS011;33129;52.232;5.192;2022-10-26T03:10:18;8.60;;;5.10;;
47383;SDS011;33129;52.232;5.192;2022-10-26T03:12:44;11.60;;;5.27;;
47383;SDS011;33129;52.232;5.192;2022-10-26T03:15:10;10.27;;;5.30;;
47383;SDS011;33129;52.232;5.192;2022-10-26T03:17:36;11.47;;;5.13;;
47383;SDS011;33129;52.232;5.192;2022-10-26T03:20:02;10.13;;;5.20;;
47383;SDS011;33129;52.232;5.192;2022-10-26T03:22:29;9.60;;;5.23;;
47383;SDS011;33129;52.232;5.192;2022-10-26T03:24:54;9.73;;;4.97;;
47383;SDS011;33129;52.232;5.192;2022-10-26T03:27:20;11.23;;;5.17;;
47383;SDS011;33129;52.232;5.192;2022-10-26T03:29:47;9.07;;;4.93;;
47383;SDS011;33129;52.232;5.192;2022-10-26T03:32:12;11.43;;;5.73;;
47383;SDS011;33129;52.232;5.192;2022-10-26T03:34:38;9.27;;;5.00;;
47383;SDS011;33129;52.232;5.192;2022-10-26T03:37:04;11.00;;;5.23;;
47383;SDS011;33129;52.232;5.192;2022-10-26T03:39:29;8.97;;;4.90;;
47383;SDS011;33129;52.232;5.192;2022-10-26T03:41:55;10.97;;;5.83;;
47383;SDS011;33129;52.232;5.192;2022-10-26T03:44:21;15.47;;;5.20;;
47383;SDS011;33129;52.232;5.192;2022-10-26T03:46:47;9.40;;;4.93;;
47383;SDS011;33129;52.232;5.192;2022-10-26T03:49:13;10.10;;;5.20;;
47383;SDS011;33129;52.232;5.192;2022-10-26T03:51:38;11.17;;;5.13;;
47383;SDS011;33129;52.232;5.192;2022-10-26T03:54:04;10.07;;;4.80;;
47383;SDS011;33129;52.232;5.192;2022-10-26T03:56:31;10.87;;;5.03;;
47383;SDS011;33129;52.232;5.192;2022-10-26T03:58:56;11.23;;;5.40;;
47383;SDS011;33129;52.232;5.192;2022-10-26T04:01:22;9.43;;;4.70;;
47383;SDS011;33129;52.232;5.192;2022-10-26T04:03:48;9.27;;;4.50;;
47383;SDS011;33129;52.232;5.192;2022-10-26T04:06:13;11.57;;;5.20;;
47383;SDS011;33129;52.232;5.192;2022-10-26T04:08:39;13.70;;;5.07;;
47383;SDS011;33129;52.232;5.192;2022-10-26T04:11:05;9.67;;;4.80;;
47383;SDS011;33129;52.232;5.192;2022-10-26T04:13:31;11.00;;;5.07;;
47383;SDS011;33129;52.232;5.192;2022-10-26T04:15:57;11.83;;;4.87;;
47383;SDS011;33129;52.232;5.192;2022-10-26T04:18:24;11.00;;;3.87;;
47383;SDS011;33129;52.232;5.192;2022-10-26T04:20:49;8.67;;;4.67;;
47383;SDS011;33129;52.232;5.192;2022-10-26T04:23:16;7.57;;;4.63;;
47383;SDS011;33129;52.232;5.192;2022-10-26T04:25:43;11.73;;;5.00;;
47383;SDS011;33129;52.232;5.192;2022-10-26T04:28:10;10.87;;;4.37;;
47383;SDS011;33129;52.232;5.192;2022-10-26T04:30:37;10.93;;;4.70;;
47383;SDS011;33129;52.232;5.192;2022-10-26T04:33:04;9.60;;;5.00;;
47383;SDS011;33129;52.232;5.192;2022-10-26T04:35:30;8.63;;;4.50;;
47383;SDS011;33129;52.232;5.192;2022-10-26T04:37:57;8.73;;;4.80;;
47383;SDS011;33129;52.232;5.192;2022-10-26T04:40:29;10.77;;;4.30;;
47383;SDS011;33129;52.232;5.192;2022-10-26T04:42:56;9.67;;;4.50;;
47383;SDS011;33129;52.232;5.192;2022-10-26T04:45:22;7.70;;;4.60;;
47383;SDS011;33129;52.232;5.192;2022-10-26T04:47:57;10.37;;;4.40;;
47383;SDS011;33129;52.232;5.192;2022-10-26T04:50:28;12.38;;;4.80;;
47383;SDS011;33129;52.232;5.192;2022-10-26T04:52:53;10.33;;;4.83;;
47383;SDS011;33129;52.232;5.192;2022-10-26T04:55:19;7.10;;;4.03;;
47383;SDS011;33129;52.232;5.192;2022-10-26T04:57:45;8.63;;;4.03;;
47383;SDS011;33129;52.232;5.192;2022-10-26T05:00:11;8.97;;;4.70;;
47383;SDS011;33129;52.232;5.192;2022-10-26T05:02:37;8.70;;;4.37;;
47383;SDS011;33129;52.232;5.192;2022-10-26T05:05:03;9.73;;;4.37;;
47383;SDS011;33129;52.232;5.192;2022-10-26T05:07:29;10.30;;;4.17;;
47383;SDS011;33129;52.232;5.192;2022-10-26T05:09:54;9.40;;;4.07;;
47383;SDS011;33129;52.232;5.192;2022-10-26T05:12:20;11.67;;;4.70;;
47383;SDS011;33129;52.232;5.192;2022-10-26T05:14:46;12.30;;;4.40;;
47383;SDS011;33129;52.232;5.192;2022-10-26T05:17:11;7.53;;;3.47;;
47383;SDS011;33129;52.232;5.192;2022-10-26T05:19:37;8.70;;;3.90;;
47383;SDS011;33129;52.232;5.192;2022-10-26T05:22:03;10.13;;;3.70;;
47383;SDS011;33129;52.232;5.192;2022-10-26T05:24:29;8.07;;;3.87;;
47383;SDS011;33129;52.232;5.192;2022-10-26T05:26:55;8.33;;;3.60;;
47383;SDS011;33129;52.232;5.192;2022-10-26T05:29:21;8.53;;;3.80;;
47383;SDS011;33129;52.232;5.192;2022-10-26T05:31:46;6.67;;;3.53;;
47383;SDS011;33129;52.232;5.192;2022-10-26T05:34:12;10.33;;;3.43;;
47383;SDS011;33129;52.232;5.192;2022-10-26T05:36:38;8.13;;;3.50;;
47383;SDS011;33129;52.232;5.192;2022-10-26T05:39:05;11.23;;;3.80;;
47383;SDS011;33129;52.232;5.192;2022-10-26T05:41:31;9.47;;;3.30;;
47383;SDS011;33129;52.232;5.192;2022-10-26T05:43:57;8.13;;;3.70;;
47383;SDS011;33129;52.232;5.192;2022-10-26T05:46:23;6.90;;;3.60;;
47383;SDS011;33129;52.232;5.192;2022-10-26T05:48:48;7.43;;;3.93;;
47383;SDS011;33129;52.232;5.192;2022-10-26T05:51:15;7.87;;;4.07;;
47383;SDS011;33129;52.232;5.192;2022-10-26T05:53:40;7.73;;;4.40;;
47383;SDS011;33129;52.232;5.192;2022-10-26T05:56:18;10.97;;;4.33;;
47383;SDS011;33129;52.232;5.192;2022-10-26T05:58:48;9.90;;;4.17;;
47383;SDS011;33129;52.232;5.192;2022-10-26T06:07:15;7.60;;;3.60;;
47383;SDS011;33129;52.232;5.192;2022-10-26T06:09:44;7.93;;;3.67;;
47383;SDS011;33129;52.232;5.192;2022-10-26T06:12:12;9.03;;;3.53;;
47383;SDS011;33129;52.232;5.192;2022-10-26T06:14:38;10.23;;;3.93;;
47383;SDS011;33129;52.232;5.192;2022-10-26T06:20:25;9.00;;;3.97;;
47383;SDS011;33129;52.232;5.192;2022-10-26T06:23:16;9.60;;;3.70;;
47383;SDS011;33129;52.232;5.192;2022-10-26T06:31:42;7.53;;;3.60;;
47383;SDS011;33129;52.232;5.192;2022-10-26T06:34:09;8.80;;;3.63;;
47383;SDS011;33129;52.232;5.192;2022-10-26T06:36:40;8.10;;;3.83;;
47383;SDS011;33129;52.232;5.192;2022-10-26T06:39:07;9.97;;;3.60;;
47383;SDS011;33129;52.232;5.192;2022-10-26T06:41:36;6.87;;;3.20;;
47383;SDS011;33129;52.232;5.192;2022-10-26T06:44:03;7.70;;;3.43;;
47383;SDS011;33129;52.232;5.192;2022-10-26T06:46:32;8.07;;;3.70;;
47383;SDS011;33129;52.232;5.192;2022-10-26T06:52:43;6.40;;;3.10;;
47383;SDS011;33129;52.232;5.192;2022-10-26T06:55:15;7.93;;;3.33;;
47383;SDS011;33129;52.232;5.192;2022-10-26T06:57:42;9.47;;;3.83;;
47383;SDS011;33129;52.232;5.192;2022-10-26T07:00:13;6.83;;;3.20;;
47383;SDS011;33129;52.232;5.192;2022-10-26T07:02:46;7.73;;;3.30;;
47383;SDS011;33129;52.232;5.192;2022-10-26T07:05:13;10.30;;;3.73;;
47383;SDS011;33129;52.232;5.192;2022-10-26T07:07:40;7.70;;;3.30;;
47383;SDS011;33129;52.232;5.192;2022-10-26T07:10:08;11.73;;;3.10;;
47383;SDS011;33129;52.232;5.192;2022-10-26T07:12:35;7.43;;;3.10;;
47383;SDS011;33129;52.232;5.192;2022-10-26T07:15:02;8.67;;;3.50;;
47383;SDS011;33129;52.232;5.192;2022-10-26T07:17:29;9.23;;;3.33;;
47383;SDS011;33129;52.232;5.192;2022-10-26T07:19:55;8.17;;;3.20;;
47383;SDS011;33129;52.232;5.192;2022-10-26T07:22:21;15.93;;;4.17;;
47383;SDS011;33129;52.232;5.192;2022-10-26T07:24:49;12.90;;;3.80;;
47383;SDS011;33129;52.232;5.192;2022-10-26T07:27:16;7.27;;;3.43;;
47383;SDS011;33129;52.232;5.192;2022-10-26T07:29:45;8.80;;;3.33;;
47383;SDS011;33129;52.232;5.192;2022-10-26T07:32:11;6.30;;;2.97;;
47383;SDS011;33129;52.232;5.192;2022-10-26T07:34:36;8.37;;;3.97;;
47383;SDS011;33129;52.232;5.192;2022-10-26T07:37:02;7.83;;;3.40;;
47383;SDS011;33129;52.232;5.192;2022-10-26T07:39:28;7.43;;;3.40;;
47383;SDS011;33129;52.232;5.192;2022-10-26T07:41:56;6.97;;;3.53;;
47383;SDS011;33129;52.232;5.192;2022-10-26T07:44:22;6.93;;;3.13;;
47383;SDS011;33129;52.232;5.192;2022-10-26T07:46:48;8.53;;;3.20;;
47383;SDS011;33129;52.232;5.192;2022-10-26T07:49:15;9.63;;;3.63;;
47383;SDS011;33129;52.232;5.192;2022-10-26T07:51:41;6.67;;;3.10;;
47383;SDS011;33129;52.232;5.192;2022-10-26T07:54:06;10.67;;;3.03;;
47383;SDS011;33129;52.232;5.192;2022-10-26T07:56:32;7.77;;;2.67;;
47383;SDS011;33129;52.232;5.192;2022-10-26T07:58:58;9.60;;;3.57;;
47383;SDS011;33129;52.232;5.192;2022-10-26T08:01:24;7.27;;;3.10;;
47383;SDS011;33129;52.232;5.192;2022-10-26T08:03:50;5.90;;;3.17;;
47383;SDS011;33129;52.232;5.192;2022-10-26T08:06:17;10.07;;;3.33;;
47383;SDS011;33129;52.232;5.192;2022-10-26T08:08:44;8.70;;;3.20;;
47383;SDS011;33129;52.232;5.192;2022-10-26T08:11:11;8.73;;;3.70;;
47383;SDS011;33129;52.232;5.192;2022-10-26T08:13:37;7.13;;;3.40;;
47383;SDS011;33129;52.232;5.192;2022-10-26T08:16:03;7.70;;;3.00;;
47383;SDS011;33129;52.232;5.192;2022-10-26T08:18:30;6.10;;;3.23;;
47383;SDS011;33129;52.232;5.192;2022-10-26T08:21:04;7.47;;;2.90;;
47383;SDS011;33129;52.232;5.192;2022-10-26T08:23:32;6.67;;;2.77;;
47383;SDS011;33129;52.232;5.192;2022-10-26T08:25:58;6.10;;;2.60;;
47383;SDS011;33129;52.232;5.192;2022-10-26T08:28:26;8.87;;;2.70;;
47383;SDS011;33129;52.232;5.192;2022-10-26T08:30:53;5.03;;;2.40;;
47383;SDS011;33129;52.232;5.192;2022-10-26T08:33:19;6.93;;;2.90;;
47383;SDS011;33129;52.232;5.192;2022-10-26T08:35:46;6.93;;;3.08;;
47383;SDS011;33129;52.232;5.192;2022-10-26T08:38:12;6.93;;;2.95;;
47383;SDS011;33129;52.232;5.192;2022-10-26T08:40:39;7.38;;;2.53;;
47383;SDS011;33129;52.232;5.192;2022-10-26T08:48:37;8.35;;;2.78;;
47383;SDS011;33129;52.232;5.192;2022-10-26T08:51:21;8.63;;;3.00;;
47383;SDS011;33129;52.232;5.192;2022-10-26T08:53:53;8.57;;;3.47;;
47383;SDS011;33129;52.232;5.192;2022-10-26T08:56:26;7.47;;;3.47;;
47383;SDS011;33129;52.232;5.192;2022-10-26T08:59:11;9.07;;;3.73;;
47383;SDS011;33129;52.232;5.192;2022-10-26T09:01:58;7.67;;;3.70;;
47383;SDS011;33129;52.232;5.192;2022-10-26T09:04:26;7.53;;;3.60;;
47383;SDS011;33129;52.232;5.192;2022-10-26T09:09:59;9.47;;;4.00;;
47383;SDS011;33129;52.232;5.192;2022-10-26T09:12:48;7.00;;;3.00;;
47383;SDS011;33129;52.232;5.192;2022-10-26T09:16:11;7.00;;;3.40;;
47383;SDS011;33129;52.232;5.192;2022-10-26T09:24:13;7.97;;;3.25;;
47383;SDS011;33129;52.232;5.192;2022-10-26T09:29:56;6.70;;;3.30;;
47383;SDS011;33129;52.232;5.192;2022-10-26T09:32:28;6.93;;;3.10;;
47383;SDS011;33129;52.232;5.192;2022-10-26T09:35:02;7.05;;;2.97;;
47383;SDS011;33129;52.232;5.192;2022-10-26T09:37:36;7.68;;;3.35;;
47383;SDS011;33129;52.232;5.192;2022-10-26T09:40:17;7.05;;;2.55;;
47383;SDS011;33129;52.232;5.192;2022-10-26T09:45:35;5.50;;;2.53;;
47383;SDS011;33129;52.232;5.192;2022-10-26T09:48:05;7.18;;;2.70;;
47383;SDS011;33129;52.232;5.192;2022-10-26T09:50:47;12.50;;;3.50;;
47383;SDS011;33129;52.232;5.192;2022-10-26T09:53:15;8.02;;;2.85;;
47383;SDS011;33129;52.232;5.192;2022-10-26T09:55:42;7.65;;;2.85;;
47383;SDS011;33129;52.232;5.192;2022-10-26T09:58:22;6.97;;;2.53;;
47383;SDS011;33129;52.232;5.192;2022-10-26T10:00:57;9.48;;;3.05;;
47383;SDS011;33129;52.232;5.192;2022-10-26T10:03:27;7.60;;;2.80;;
47383;SDS011;33129;52.232;5.192;2022-10-26T10:16:58;9.90;;;3.40;;
47383;SDS011;33129;52.232;5.192;2022-10-26T10:25:01;8.88;;;3.20;;
47383;SDS011;33129;52.232;5.192;2022-10-26T10:29:56;9.13;;;3.28;;
47383;SDS011;33129;52.232;5.192;2022-10-26T10:34:56;7.82;;;3.40;;
47383;SDS011;33129;52.232;5.192;2022-10-26T10:40:08;7.20;;;2.92;;
47383;SDS011;33129;52.232;5.192;2022-10-26T10:42:43;11.82;;;3.25;;
47383;SDS011;33129;52.232;5.192;2022-10-26T10:45:21;7.85;;;3.22;;
47383;SDS011;33129;52.232;5.192;2022-10-26T10:48:01;11.20;;;3.22;;
47383;SDS011;33129;52.232;5.192;2022-10-26T10:50:30;8.48;;;3.15;;
47383;SDS011;33129;52.232;5.192;2022-10-26T10:55:51;10.95;;;3.28;;
47383;SDS011;33129;52.232;5.192;2022-10-26T11:04:37;8.57;;;4.38;;
47383;SDS011;33129;52.232;5.192;2022-10-26T11:07:51;8.88;;;4.30;;
47383;SDS011;33129;52.232;5.192;2022-10-26T11:10:37;8.43;;;4.50;;
47383;SDS011;33129;52.232;5.192;2022-10-26T11:16:56;6.78;;;4.28;;
47383;SDS011;33129;52.232;5.192;2022-10-26T11:19:32;8.65;;;4.45;;
47383;SDS011;33129;52.232;5.192;2022-10-26T11:22:10;7.90;;;4.25;;
47383;SDS011;33129;52.232;5.192;2022-10-26T11:25:04;8.48;;;4.00;;
47383;SDS011;33129;52.232;5.192;2022-10-26T11:27:45;10.57;;;4.88;;
47383;SDS011;33129;52.232;5.192;2022-10-26T11:30:17;11.75;;;5.15;;
47383;SDS011;33129;52.232;5.192;2022-10-26T11:33:07;11.95;;;5.85;;
47383;SDS011;33129;52.232;5.192;2022-10-26T11:36:05;10.27;;;5.88;;
47383;SDS011;33129;52.232;5.192;2022-10-26T11:38:45;9.23;;;5.97;;
47383;SDS011;33129;52.232;5.192;2022-10-26T11:41:17;10.30;;;6.05;;
47383;SDS011;33129;52.232;5.192;2022-10-26T11:44:00;8.63;;;5.38;;
47383;SDS011;33129;52.232;5.192;2022-10-26T11:46:39;11.68;;;5.70;;
47383;SDS011;33129;52.232;5.192;2022-10-26T11:49:14;9.25;;;5.05;;
47383;SDS011;33129;52.232;5.192;2022-10-26T11:54:24;8.48;;;5.55;;
47383;SDS011;33129;52.232;5.192;2022-10-26T11:56:57;10.60;;;4.82;;
47383;SDS011;33129;52.232;5.192;2022-10-26T11:59:25;9.82;;;4.93;;
47383;SDS011;33129;52.232;5.192;2022-10-26T12:04:29;7.60;;;4.32;;
47383;SDS011;33129;52.232;5.192;2022-10-26T12:06:59;7.60;;;3.88;;
47383;SDS011;33129;52.232;5.192;2022-10-26T12:09:33;9.98;;;4.28;;
47383;SDS011;33129;52.232;5.192;2022-10-26T12:12:06;8.07;;;3.50;;
47383;SDS011;33129;52.232;5.192;2022-10-26T12:14:55;8.75;;;4.13;;
47383;SDS011;33129;52.232;5.192;2022-10-26T12:23:27;9.02;;;3.53;;
47383;SDS011;33129;52.232;5.192;2022-10-26T12:28:47;9.95;;;4.00;;
47383;SDS011;33129;52.232;5.192;2022-10-26T12:34:03;10.65;;;4.57;;
47383;SDS011;33129;52.232;5.192;2022-10-26T12:39:36;9.02;;;3.30;;
47383;SDS011;33129;52.232;5.192;2022-10-26T12:52:27;5.22;;;2.15;;
47383;SDS011;33129;52.232;5.192;2022-10-26T12:55:01;7.30;;;2.35;;
47383;SDS011;33129;52.232;5.192;2022-10-26T13:07:24;7.13;;;2.10;;
47383;SDS011;33129;52.232;5.192;2022-10-26T13:10:01;7.80;;;2.40;;
47383;SDS011;33129;52.232;5.192;2022-10-26T13:15:27;5.15;;;2.00;;
47383;SDS011;33129;52.232;5.192;2022-10-26T13:18:07;8.40;;;2.35;;
47383;SDS011;33129;52.232;5.192;2022-10-26T13:23:31;7.35;;;2.35;;
47383;SDS011;33129;52.232;5.192;2022-10-26T13:26:01;11.00;;;2.85;;
47383;SDS011;33129;52.232;5.192;2022-10-26T13:31:25;6.28;;;2.35;;
47383;SDS011;33129;52.232;5.192;2022-10-26T13:34:13;5.60;;;3.00;;
47383;SDS011;33129;52.232;5.192;2022-10-26T13:39:40;8.50;;;2.85;;
47383;SDS011;33129;52.232;5.192;2022-10-26T13:42:13;7.25;;;2.78;;
47383;SDS011;33129;52.232;5.192;2022-10-26T13:44:58;6.25;;;2.28;;
47383;SDS011;33129;52.232;5.192;2022-10-26T13:47:43;7.47;;;2.75;;
47383;SDS011;33129;52.232;5.192;2022-10-26T13:50:27;5.72;;;2.65;;
47383;SDS011;33129;52.232;5.192;2022-10-26T13:53:00;9.52;;;4.00;;
47383;SDS011;33129;52.232;5.192;2022-10-26T13:56:04;7.45;;;2.70;;
47383;SDS011;33129;52.232;5.192;2022-10-26T13:58:49;7.57;;;2.70;;
47383;SDS011;33129;52.232;5.192;2022-10-26T14:01:25;8.38;;;2.72;;
47383;SDS011;33129;52.232;5.192;2022-10-26T14:03:52;7.95;;;2.72;;
47383;SDS011;33129;52.232;5.192;2022-10-26T14:08:52;9.38;;;2.72;;
47383;SDS011;33129;52.232;5.192;2022-10-26T14:11:36;7.85;;;2.55;;
47383;SDS011;33129;52.232;5.192;2022-10-26T14:14:16;7.25;;;2.30;;
47383;SDS011;33129;52.232;5.192;2022-10-26T14:17:01;5.40;;;2.00;;
47383;SDS011;33129;52.232;5.192;2022-10-26T14:19:38;7.18;;;2.22;;
47383;SDS011;33129;52.232;5.192;2022-10-26T14:22:05;6.43;;;2.10;;
47383;SDS011;33129;52.232;5.192;2022-10-26T14:24:32;6.65;;;1.90;;
47383;SDS011;33129;52.232;5.192;2022-10-26T14:27:13;6.25;;;2.35;;
47383;SDS011;33129;52.232;5.192;2022-10-26T14:29:46;7.55;;;1.90;;
47383;SDS011;33129;52.232;5.192;2022-10-26T14:32:19;9.45;;;2.10;;
47383;SDS011;33129;52.232;5.192;2022-10-26T14:34:53;6.82;;;2.08;;
47383;SDS011;33129;52.232;5.192;2022-10-26T14:37:29;6.10;;;2.35;;
47383;SDS011;33129;52.232;5.192;2022-10-26T14:40:20;9.30;;;2.38;;
47383;SDS011;33129;52.232;5.192;2022-10-26T14:42:53;8.07;;;2.30;;
47383;SDS011;33129;52.232;5.192;2022-10-26T14:48:02;6.28;;;1.88;;
47383;SDS011;33129;52.232;5.192;2022-10-26T14:50:30;6.15;;;2.05;;
47383;SDS011;33129;52.232;5.192;2022-10-26T14:53:01;8.20;;;2.25;;
47383;SDS011;33129;52.232;5.192;2022-10-26T14:55:45;6.15;;;2.25;;
47383;SDS011;33129;52.232;5.192;2022-10-26T14:58:20;8.40;;;1.83;;
47383;SDS011;33129;52.232;5.192;2022-10-26T15:04:03;6.15;;;1.90;;
47383;SDS011;33129;52.232;5.192;2022-10-26T15:06:32;6.38;;;2.30;;
47383;SDS011;33129;52.232;5.192;2022-10-26T15:09:03;6.00;;;2.35;;
47383;SDS011;33129;52.232;5.192;2022-10-26T15:11:31;7.55;;;2.42;;
47383;SDS011;33129;52.232;5.192;2022-10-26T15:13:58;9.80;;;2.47;;
47383;SDS011;33129;52.232;5.192;2022-10-26T15:16:26;7.88;;;2.42;;
47383;SDS011;33129;52.232;5.192;2022-10-26T15:18:59;5.25;;;2.28;;
47383;SDS011;33129;52.232;5.192;2022-10-26T15:21:36;9.63;;;2.40;;
47383;SDS011;33129;52.232;5.192;2022-10-26T15:24:25;7.90;;;2.38;;
47383;SDS011;33129;52.232;5.192;2022-10-26T15:26:57;7.63;;;2.30;;
47383;SDS011;33129;52.232;5.192;2022-10-26T15:29:38;8.65;;;2.15;;
47383;SDS011;33129;52.232;5.192;2022-10-26T15:32:20;7.88;;;2.40;;
47383;SDS011;33129;52.232;5.192;2022-10-26T15:35:13;8.50;;;2.83;;
47383;SDS011;33129;52.232;5.192;2022-10-26T15:37:48;6.78;;;2.53;;
47383;SDS011;33129;52.232;5.192;2022-10-26T15:40:16;9.52;;;2.67;;
47383;SDS011;33129;52.232;5.192;2022-10-26T15:42:43;9.02;;;2.55;;
47383;SDS011;33129;52.232;5.192;2022-10-26T15:47:51;6.68;;;2.42;;
47383;SDS011;33129;52.232;5.192;2022-10-26T15:50:22;11.90;;;2.58;;
47383;SDS011;33129;52.232;5.192;2022-10-26T15:53:12;7.65;;;2.65;;
47383;SDS011;33129;52.232;5.192;2022-10-26T15:55:43;6.32;;;2.40;;
47383;SDS011;33129;52.232;5.192;2022-10-26T15:58:09;8.07;;;2.50;;
47383;SDS011;33129;52.232;5.192;2022-10-26T16:00:35;7.65;;;2.38;;
47383;SDS011;33129;52.232;5.192;2022-10-26T16:03:02;9.05;;;2.47;;
47383;SDS011;33129;52.232;5.192;2022-10-26T16:05:28;10.10;;;2.67;;
47383;SDS011;33129;52.232;5.192;2022-10-26T16:07:53;7.28;;;2.40;;
47383;SDS011;33129;52.232;5.192;2022-10-26T16:10:21;8.88;;;3.03;;
47383;SDS011;33129;52.232;5.192;2022-10-26T16:12:49;6.88;;;2.28;;
47383;SDS011;33129;52.232;5.192;2022-10-26T16:15:19;9.63;;;3.13;;
47383;SDS011;33129;52.232;5.192;2022-10-26T16:17:48;8.48;;;2.95;;
47383;SDS011;33129;52.232;5.192;2022-10-26T16:20:19;6.15;;;2.60;;
47383;SDS011;33129;52.232;5.192;2022-10-26T16:22:48;11.90;;;3.93;;
47383;SDS011;33129;52.232;5.192;2022-10-26T16:25:16;10.48;;;3.80;;
47383;SDS011;33129;52.232;5.192;2022-10-26T16:27:45;9.18;;;3.28;;
47383;SDS011;33129;52.232;5.192;2022-10-26T16:30:12;13.77;;;4.90;;
47383;SDS011;33129;52.232;5.192;2022-10-26T16:32:38;9.00;;;3.38;;
47383;SDS011;33129;52.232;5.192;2022-10-26T16:35:05;12.23;;;3.70;;
47383;SDS011;33129;52.232;5.192;2022-10-26T16:37:32;13.17;;;3.90;;
47383;SDS011;33129;52.232;5.192;2022-10-26T16:39:58;6.80;;;2.70;;
47383;SDS011;33129;52.232;5.192;2022-10-26T16:42:24;8.80;;;2.60;;
47383;SDS011;33129;52.232;5.192;2022-10-26T16:44:50;13.10;;;2.90;;
47383;SDS011;33129;52.232;5.192;2022-10-26T16:47:15;8.27;;;2.50;;
47383;SDS011;33129;52.232;5.192;2022-10-26T16:49:42;8.73;;;2.55;;
47383;SDS011;33129;52.232;5.192;2022-10-26T16:52:09;7.83;;;2.70;;
47383;SDS011;33129;52.232;5.192;2022-10-26T16:54:36;8.93;;;2.90;;
47383;SDS011;33129;52.232;5.192;2022-10-26T16:57:02;6.63;;;2.43;;
47383;SDS011;33129;52.232;5.192;2022-10-26T16:59:28;7.57;;;2.93;;
47383;SDS011;33129;52.232;5.192;2022-10-26T17:01:54;6.47;;;2.70;;
47383;SDS011;33129;52.232;5.192;2022-10-26T17:04:20;8.07;;;2.53;;
47383;SDS011;33129;52.232;5.192;2022-10-26T17:06:46;6.10;;;2.13;;
47383;SDS011;33129;52.232;5.192;2022-10-26T17:09:12;8.53;;;2.30;;
47383;SDS011;33129;52.232;5.192;2022-10-26T17:11:38;8.87;;;2.33;;
47383;SDS011;33129;52.232;5.192;2022-10-26T17:14:04;14.70;;;2.93;;
47383;SDS011;33129;52.232;5.192;2022-10-26T17:16:30;7.47;;;2.57;;
47383;SDS011;33129;52.232;5.192;2022-10-26T17:18:55;11.03;;;2.70;;
47383;SDS011;33129;52.232;5.192;2022-10-26T17:21:31;7.93;;;2.73;;
47383;SDS011;33129;52.232;5.192;2022-10-26T17:23:59;9.20;;;3.23;;
47383;SDS011;33129;52.232;5.192;2022-10-26T17:26:26;7.53;;;2.63;;
47383;SDS011;33129;52.232;5.192;2022-10-26T17:28:53;12.87;;;3.43;;
47383;SDS011;33129;52.232;5.192;2022-10-26T17:31:21;11.63;;;3.70;;
47383;SDS011;33129;52.232;5.192;2022-10-26T17:33:48;9.23;;;3.30;;
47383;SDS011;33129;52.232;5.192;2022-10-26T17:36:15;9.17;;;3.23;;
47383;SDS011;33129;52.232;5.192;2022-10-26T17:38:44;7.63;;;3.17;;
47383;SDS011;33129;52.232;5.192;2022-10-26T17:41:14;11.80;;;2.90;;
47383;SDS011;33129;52.232;5.192;2022-10-26T17:43:42;10.07;;;3.40;;
47383;SDS011;33129;52.232;5.192;2022-10-26T17:46:10;10.87;;;3.10;;